Time;durP1;ratioP1;P1;durP2;ratioP2;P2;SDS_P1;SDS_P2;PMS_P1;PMS_P2;Temp;Humidity;BMP_temperature;BMP_pressure;BME280_temperature;BME280_humidity;BME280_pressure;Samples;Min_cycle;Max_cycle;Signal;HPM_P1;HPM_P2
2023/03/21 00:02:19;;;;;;;11.90;4.40;;;11.40;1.00;;;;;;5054477;28;20388;-57
2023/03/21 00:04:45;;;;;;;10.48;4.50;;;11.60;1.00;;;;;;5055903;28;20406;-57
2023/03/21 00:07:11;;;;;;;11.68;4.60;;;11.60;1.00;;;;;;5059587;28;20392;-57
2023/03/21 00:09:36;;;;;;;10.47;4.53;;;11.60;1.00;;;;;;5055304;28;20397;-61
2023/03/21 00:12:06;;;;;;;11.90;4.55;;;11.60;1.00;;;;;;5057948;28;20871;-57
2023/03/21 00:14:31;;;;;;;10.05;4.63;;;11.40;1.00;;;;;;5057489;28;20380;-57
2023/03/21 00:16:57;;;;;;;14.32;4.82;;;11.30;1.00;;;;;;5054693;28;20420;-56
2023/03/21 00:19:25;;;;;;;12.10;5.00;;;11.10;1.00;;;;;;5053877;28;20872;-56
2023/03/21 00:21:51;;;;;;;12.65;4.88;;;11.00;1.00;;;;;;5066804;28;20816;-57
2023/03/21 00:24:17;;;;;;;11.15;4.70;;;11.00;1.00;;;;;;5061393;28;20560;-56
2023/03/21 00:26:43;;;;;;;12.80;4.95;;;11.00;1.00;;;;;;5052445;28;20480;-58
2023/03/21 00:29:09;;;;;;;11.07;5.03;;;11.00;1.00;;;;;;5061584;28;20796;-56
2023/03/21 00:31:35;;;;;;;10.07;4.40;;;11.10;1.00;;;;;;5059469;28;20397;-61
2023/03/21 00:34:00;;;;;;;11.80;4.40;;;11.10;1.00;;;;;;5065476;28;20413;-59
2023/03/21 00:36:26;;;;;;;11.95;4.90;;;11.20;1.00;;;;;;5053044;28;20411;-56
2023/03/21 00:38:52;;;;;;;11.43;4.38;;;11.20;1.00;;;;;;5067518;28;20469;-56
2023/03/21 00:41:18;;;;;;;9.60;4.53;;;11.10;1.00;;;;;;5065948;28;20407;-56
2023/03/21 00:43:45;;;;;;;9.20;3.90;;;11.10;1.00;;;;;;5054159;28;20394;-59
2023/03/21 00:46:10;;;;;;;12.45;4.70;;;11.20;1.00;;;;;;5057449;28;20410;-56
2023/03/21 00:48:36;;;;;;;11.23;5.50;;;11.30;1.00;;;;;;5062824;28;20756;-62
2023/03/21 00:51:11;;;;;;;11.93;5.57;;;11.40;1.00;;;;;;5054985;28;20472;-59
2023/03/21 00:53:36;;;;;;;11.80;5.07;;;11.50;1.00;;;;;;5054265;28;20405;-63
2023/03/21 00:56:02;;;;;;;13.63;5.20;;;11.50;1.00;;;;;;5070727;28;20454;-60
2023/03/21 00:58:28;;;;;;;14.38;5.05;;;11.50;1.00;;;;;;5058852;28;20766;-58
2023/03/21 01:00:56;;;;;;;11.23;5.07;;;11.50;1.00;;;;;;5054176;28;20995;-58
2023/03/21 01:03:25;;;;;;;11.25;5.13;;;11.50;1.00;;;;;;5055315;28;20416;-58
2023/03/21 01:06:06;;;;;;;9.95;4.20;;;11.50;1.00;;;;;;5065300;28;20417;-58
2023/03/21 01:08:42;;;;;;;13.20;5.00;;;11.40;1.00;;;;;;5061422;28;20408;-56
2023/03/21 01:11:11;;;;;;;11.50;4.83;;;11.40;1.00;;;;;;5051939;28;20397;-57
2023/03/21 01:13:37;;;;;;;13.75;4.78;;;11.40;1.00;;;;;;5054933;28;20387;-58
2023/03/21 01:16:05;;;;;;;13.60;4.73;;;11.40;1.00;;;;;;5066394;28;21078;-59
2023/03/21 01:18:32;;;;;;;12.65;4.55;;;11.40;1.00;;;;;;5051304;28;20417;-58
2023/03/21 01:20:59;;;;;;;9.25;4.28;;;11.40;1.00;;;;;;5063998;28;20539;-58
2023/03/21 01:23:26;;;;;;;10.52;4.30;;;11.40;1.00;;;;;;5068708;28;20391;-58
2023/03/21 01:25:54;;;;;;;11.33;4.80;;;11.20;1.00;;;;;;5034802;28;20480;-59
2023/03/21 01:28:20;;;;;;;10.18;4.32;;;11.10;1.00;;;;;;5062163;28;20403;-56
2023/03/21 01:30:50;;;;;;;11.50;5.27;;;11.00;1.00;;;;;;5051787;28;20374;-56
2023/03/21 01:33:17;;;;;;;11.40;5.57;;;11.00;1.00;;;;;;5051040;28;20409;-56
2023/03/21 01:35:45;;;;;;;16.33;5.40;;;11.00;1.00;;;;;;5050114;28;20809;-56
2023/03/21 01:38:11;;;;;;;11.80;5.70;;;10.90;1.00;;;;;;5050922;28;20450;-57
2023/03/21 01:40:37;;;;;;;10.68;4.97;;;10.80;1.00;;;;;;5051054;28;20384;-59
2023/03/21 01:43:22;;;;;;;12.25;4.45;;;10.80;1.00;;;;;;5051042;28;20385;-57
2023/03/21 01:46:26;;;;;;;11.90;5.18;;;11.00;1.00;;;;;;5050279;28;20388;-56
2023/03/21 01:49:03;;;;;;;11.55;5.35;;;11.00;1.00;;;;;;5049574;28;20429;-56
2023/03/21 01:51:33;;;;;;;11.32;5.55;;;11.10;1.00;;;;;;5050794;28;20410;-56
2023/03/21 01:53:59;;;;;;;11.80;4.72;;;11.10;1.00;;;;;;5050124;28;20466;-59
2023/03/21 01:56:29;;;;;;;13.10;5.40;;;11.10;12.70;;;;;;5050783;28;20409;-56
2023/03/21 01:59:03;;;;;;;10.77;5.10;;;11.00;99.90;;;;;;5050153;28;20421;-56
2023/03/21 02:01:30;;;;;;;11.50;5.70;;;11.80;99.90;;;;;;5068591;28;20486;-56
2023/03/21 02:04:02;;;;;;;12.52;5.20;;;10.80;1.00;;;;;;5056032;28;20656;-56
2023/03/21 02:06:49;;;;;;;11.73;5.22;;;10.70;1.00;;;;;;5058664;28;20430;-56
2023/03/21 02:09:21;;;;;;;12.85;5.75;;;10.70;99.90;;;;;;5068765;28;20399;-56
2023/03/21 02:11:47;;;;;;;11.60;4.78;;;10.70;99.90;;;;;;5049818;28;20412;-56
2023/03/21 02:14:17;;;;;;;13.15;5.30;;;10.80;99.90;;;;;;5060934;28;20396;-56
2023/03/21 02:16:50;;;;;;;12.40;5.40;;;10.90;11.10;;;;;;5058014;28;20499;-57
2023/03/21 02:19:22;;;;;;;11.48;4.80;;;10.90;1.00;;;;;;5054399;28;20418;-57
2023/03/21 02:22:26;;;;;;;9.32;4.70;;;10.80;99.90;;;;;;5050335;28;20483;-57
2023/03/21 02:25:19;;;;;;;12.32;5.20;;;10.80;99.90;;;;;;5041886;28;20882;-56
2023/03/21 02:27:58;;;;;;;11.70;5.40;;;10.90;99.90;;;;;;5048947;28;20766;-59
2023/03/21 02:30:55;;;;;;;12.27;5.07;;;10.90;99.90;;;;;;5059193;28;20392;-58
2023/03/21 02:33:20;;;;;;;10.75;5.18;;;10.80;99.90;;;;;;5064073;28;20479;-56
2023/03/21 02:35:48;;;;;;;13.13;5.80;;;10.80;99.90;;;;;;5048844;28;20512;-56
2023/03/21 02:38:36;;;;;;;13.75;5.70;;;10.80;99.90;;;;;;5049849;28;20405;-56
2023/03/21 02:41:09;;;;;;;12.55;5.10;;;10.80;99.90;;;;;;5050209;28;20466;-56
2023/03/21 02:43:44;;;;;;;14.20;5.53;;;10.80;99.90;;;;;;5059666;28;20419;-56
2023/03/21 02:46:17;;;;;;;13.05;5.75;;;10.70;99.90;;;;;;5069869;28;20471;-56
2023/03/21 02:49:06;;;;;;;13.70;6.10;;;10.70;99.90;;;;;;5069321;28;20391;-56
2023/03/21 02:51:33;;;;;;;13.65;5.70;;;10.70;99.90;;;;;;5068278;28;20406;-57
2023/03/21 02:54:11;;;;;;;12.93;5.80;;;10.80;99.90;;;;;;5061496;28;20381;-56
2023/03/21 02:56:39;;;;;;;11.88;5.15;;;10.80;99.90;;;;;;5044031;28;20919;-61
2023/03/21 02:59:06;;;;;;;11.98;5.60;;;10.80;99.90;;;;;;5048755;28;20500;-58
2023/03/21 03:01:32;;;;;;;14.75;5.30;;;10.80;99.90;;;;;;5051174;28;20408;-57
2023/03/21 03:03:57;;;;;;;12.85;5.50;;;10.80;99.90;;;;;;5056885;28;20646;-56
2023/03/21 03:06:29;;;;;;;12.70;5.73;;;10.70;99.90;;;;;;5050100;28;20397;-56
2023/03/21 03:08:57;;;;;;;13.13;5.97;;;10.70;99.90;;;;;;5049700;28;20889;-56
2023/03/21 03:11:30;;;;;;;13.48;6.30;;;10.60;99.90;;;;;;5051110;28;20428;-57
2023/03/21 03:14:02;;;;;;;13.10;6.05;;;10.60;99.90;;;;;;5054755;28;20391;-56
2023/03/21 03:16:55;;;;;;;14.68;5.90;;;10.70;1.00;;;;;;5061107;28;20501;-56
2023/03/21 03:19:28;;;;;;;13.90;6.35;;;10.70;99.90;;;;;;5049388;28;20381;-56
2023/03/21 03:21:57;;;;;;;11.23;5.75;;;10.60;99.90;;;;;;5049212;28;20393;-59
2023/03/21 03:24:32;;;;;;;12.20;6.15;;;10.60;1.00;;;;;;5035597;28;20764;-56
2023/03/21 03:27:14;;;;;;;12.93;5.20;;;10.60;1.00;;;;;;5061890;28;20414;-56
2023/03/21 03:29:43;;;;;;;13.10;6.40;;;10.60;1.00;;;;;;5048314;28;20421;-61
2023/03/21 03:32:14;;;;;;;17.02;6.78;;;10.50;99.90;;;;;;5057473;28;20884;-56
2023/03/21 03:34:43;;;;;;;13.48;6.05;;;10.50;1.00;;;;;;5051842;28;20386;-61
2023/03/21 03:37:18;;;;;;;12.98;6.03;;;10.50;1.00;;;;;;5049674;28;20502;-56
2023/03/21 03:39:56;;;;;;;12.20;5.80;;;10.50;1.00;;;;;;5048590;28;20385;-56
2023/03/21 03:42:34;;;;;;;12.70;5.40;;;10.50;1.00;;;;;;5049547;28;20472;-56
2023/03/21 03:45:00;;;;;;;13.20;6.10;;;10.50;1.00;;;;;;5048276;28;20393;-56
2023/03/21 03:47:45;;;;;;;15.50;6.47;;;10.50;1.00;;;;;;5049331;28;20388;-57
2023/03/21 03:50:37;;;;;;;12.90;6.10;;;10.50;1.00;;;;;;5049655;28;20385;-56
2023/03/21 03:53:07;;;;;;;16.10;6.57;;;10.50;1.00;;;;;;5041513;28;20456;-56
2023/03/21 03:55:33;;;;;;;12.00;5.40;;;10.50;1.00;;;;;;5049442;28;20378;-57
2023/03/21 03:58:00;;;;;;;12.75;6.10;;;10.50;1.00;;;;;;5049079;28;20401;-57
2023/03/21 04:00:26;;;;;;;11.05;4.47;;;10.50;99.90;;;;;;5068408;28;20403;-57
2023/03/21 04:02:53;;;;;;;12.07;6.03;;;10.40;1.00;;;;;;5060016;28;20393;-57
2023/03/21 04:05:19;;;;;;;12.60;4.97;;;10.50;1.00;;;;;;5056832;28;20415;-57
2023/03/21 04:07:47;;;;;;;11.53;5.20;;;10.50;99.90;;;;;;5054817;28;20495;-57
2023/03/21 04:10:13;;;;;;;10.52;4.70;;;10.40;1.00;;;;;;5056149;28;20404;-57
2023/03/21 04:12:39;;;;;;;10.43;4.80;;;10.30;1.00;;;;;;5050417;28;20400;-57
2023/03/21 04:15:05;;;;;;;10.57;4.53;;;10.40;1.00;;;;;;5053388;28;20393;-57
2023/03/21 04:17:31;;;;;;;10.68;4.80;;;10.40;1.00;;;;;;5056078;28;20420;-56
2023/03/21 04:19:57;;;;;;;13.40;4.87;;;10.40;1.00;;;;;;5052760;28;20455;-56
2023/03/21 04:22:23;;;;;;;10.30;4.25;;;10.30;1.00;;;;;;5052237;28;20374;-57
2023/03/21 04:24:49;;;;;;;10.65;4.45;;;10.30;1.00;;;;;;5065599;28;20383;-58
2023/03/21 04:27:15;;;;;;;11.17;4.33;;;10.30;1.00;;;;;;5068171;28;20903;-57
2023/03/21 04:29:41;;;;;;;9.35;4.18;;;10.30;1.00;;;;;;5056606;28;20445;-61
2023/03/21 04:32:15;;;;;;;9.88;4.20;;;10.30;1.00;;;;;;5050284;28;20436;-56
2023/03/21 04:34:42;;;;;;;10.80;4.40;;;10.30;1.00;;;;;;5050708;28;21005;-60
2023/03/21 04:37:10;;;;;;;9.10;3.70;;;10.20;6.10;;;;;;5051084;28;20495;-57
2023/03/21 04:39:37;;;;;;;10.15;4.07;;;10.10;99.90;;;;;;5051735;28;20431;-57
2023/03/21 04:42:03;;;;;;;10.57;4.15;;;10.00;99.90;;;;;;5046348;28;20425;-57
2023/03/21 04:44:29;;;;;;;10.13;4.18;;;9.90;99.90;;;;;;5051447;28;20385;-56
2023/03/21 04:46:55;;;;;;;9.55;3.92;;;9.80;99.90;;;;;;5046927;28;20383;-57
2023/03/21 04:49:20;;;;;;;9.67;4.00;;;9.90;99.90;;;;;;5049599;28;20393;-56
2023/03/21 04:51:46;;;;;;;9.07;3.75;;;10.30;1.00;;;;;;5059079;28;20498;-56
2023/03/21 04:54:14;;;;;;;8.67;3.87;;;9.80;1.00;;;;;;5061617;28;20538;-58
2023/03/21 04:56:41;;;;;;;10.90;4.10;;;9.80;1.00;;;;;;5052477;28;20405;-62
2023/03/21 04:59:11;;;;;;;9.80;3.95;;;9.90;1.00;;;;;;5058295;28;20487;-58
2023/03/21 05:01:37;;;;;;;9.73;4.00;;;9.90;1.00;;;;;;5056900;28;20389;-56
2023/03/21 05:04:03;;;;;;;11.47;4.17;;;9.90;1.00;;;;;;5058837;28;21021;-57
2023/03/21 05:06:30;;;;;;;9.75;4.00;;;11.20;99.90;;;;;;5051599;28;20393;-56
2023/03/21 05:09:00;;;;;;;9.73;4.20;;;10.00;99.90;;;;;;5058113;28;20404;-57
2023/03/21 05:11:32;;;;;;;11.13;5.07;;;9.90;99.90;;;;;;5052566;28;20407;-58
2023/03/21 05:13:58;;;;;;;11.15;4.78;;;9.90;1.00;;;;;;5048555;28;20407;-57
2023/03/21 05:16:25;;;;;;;10.35;4.70;;;9.80;1.00;;;;;;5059808;28;20411;-57
2023/03/21 05:18:54;;;;;;;10.68;5.07;;;9.70;1.00;;;;;;5054685;28;20888;-62
2023/03/21 05:21:23;;;;;;;12.00;4.60;;;9.80;1.00;;;;;;5041726;28;20506;-61
2023/03/21 05:23:53;;;;;;;9.00;4.60;;;9.90;1.00;;;;;;5059320;28;20404;-61
2023/03/21 05:26:20;;;;;;;9.57;4.40;;;10.00;99.90;;;;;;5045121;28;20453;-61
2023/03/21 05:28:46;;;;;;;11.93;4.72;;;10.00;99.90;;;;;;5036198;28;20415;-56
2023/03/21 05:31:17;;;;;;;11.40;4.75;;;9.90;99.90;;;;;;5040749;28;20745;-55
2023/03/21 05:33:44;;;;;;;10.60;4.60;;;9.90;1.00;;;;;;5035383;28;20485;-63
2023/03/21 05:36:10;;;;;;;8.82;4.20;;;9.90;1.00;;;;;;5044764;28;20422;-61
2023/03/21 05:38:41;;;;;;;10.13;3.92;;;10.00;1.00;;;;;;5029726;28;20517;-60
2023/03/21 05:41:08;;;;;;;9.20;4.40;;;10.00;99.90;;;;;;5030245;28;20434;-57
2023/03/21 05:43:34;;;;;;;10.77;4.15;;;10.10;99.90;;;;;;5030948;28;20512;-56
2023/03/21 05:46:00;;;;;;;10.90;3.90;;;10.30;16.60;;;;;;5035170;28;20494;-58
2023/03/21 05:48:25;;;;;;;9.45;3.83;;;10.40;1.00;;;;;;5052385;28;20898;-57
2023/03/21 05:50:53;;;;;;;9.03;4.20;;;10.30;1.00;;;;;;5035797;28;20397;-57
2023/03/21 05:53:18;;;;;;;8.52;3.45;;;10.40;1.00;;;;;;5051641;28;20391;-57
2023/03/21 05:55:44;;;;;;;9.60;3.90;;;10.40;1.00;;;;;;5040493;28;20441;-60
2023/03/21 05:58:10;;;;;;;10.18;4.20;;;10.40;1.00;;;;;;5059158;28;20409;-58
2023/03/21 06:00:35;;;;;;;8.43;3.77;;;10.30;99.90;;;;;;5058214;28;20395;-57
2023/03/21 06:03:01;;;;;;;11.03;4.03;;;10.40;1.00;;;;;;5047929;28;20446;-57
2023/03/21 06:05:26;;;;;;;10.93;4.00;;;10.40;1.00;;;;;;5069684;28;20399;-58
2023/03/21 06:07:52;;;;;;;11.60;4.10;;;10.50;1.00;;;;;;5054791;28;20526;-58
2023/03/21 06:10:18;;;;;;;12.20;3.90;;;11.30;99.90;;;;;;5050447;28;20385;-58
2023/03/21 06:12:43;;;;;;;10.27;3.90;;;10.30;1.00;;;;;;5054972;28;20408;-61
2023/03/21 06:15:09;;;;;;;9.35;3.70;;;10.30;1.00;;;;;;5062977;28;20409;-57
2023/03/21 06:17:35;;;;;;;9.13;3.60;;;10.40;1.00;;;;;;5065280;28;20617;-57
2023/03/21 06:20:03;;;;;;;11.53;4.10;;;10.30;1.00;;;;;;5053738;28;20934;-58
2023/03/21 06:22:29;;;;;;;9.77;3.70;;;10.20;1.00;;;;;;5062211;28;20406;-58
2023/03/21 06:24:55;;;;;;;9.65;3.78;;;10.30;99.90;;;;;;5052453;28;20872;-57
2023/03/21 06:27:20;;;;;;;9.17;3.77;;;10.30;99.90;;;;;;5049787;28;20439;-58
2023/03/21 06:29:46;;;;;;;8.27;3.42;;;10.30;99.90;;;;;;5048077;28;20444;-58
2023/03/21 06:32:12;;;;;;;7.80;3.30;;;10.40;99.90;;;;;;5049618;28;20389;-59
2023/03/21 06:34:37;;;;;;;8.10;3.22;;;10.40;99.90;;;;;;5049547;28;20401;-59
2023/03/21 06:37:03;;;;;;;8.40;3.90;;;10.50;99.90;;;;;;5046866;28;20940;-58
2023/03/21 06:39:30;;;;;;;13.27;3.80;;;10.70;16.50;;;;;;5049732;28;20876;-58
2023/03/21 06:41:56;;;;;;;9.48;3.33;;;10.70;1.00;;;;;;5048980;28;20414;-58
2023/03/21 06:44:23;;;;;;;8.50;3.30;;;10.80;1.00;;;;;;5049536;28;20390;-57
2023/03/21 06:46:49;;;;;;;9.50;3.75;;;11.00;1.00;;;;;;5048850;28;20397;-58
2023/03/21 06:49:15;;;;;;;27.75;6.00;;;11.10;1.00;;;;;;5049773;28;20444;-58
2023/03/21 06:51:41;;;;;;;13.65;4.45;;;11.30;99.90;;;;;;5049421;28;20457;-61
2023/03/21 06:54:07;;;;;;;9.70;3.50;;;11.50;99.90;;;;;;5048563;28;20389;-57
2023/03/21 06:56:32;;;;;;;9.18;3.40;;;12.30;99.90;;;;;;5049241;28;20877;-58
2023/03/21 06:58:58;;;;;;;9.53;3.50;;;13.90;1.00;;;;;;5049021;28;20397;-58
2023/03/21 07:01:26;;;;;;;9.13;3.25;;;15.00;1.00;;;;;;5049443;28;20428;-58
2023/03/21 07:03:56;;;;;;;9.57;3.10;;;15.70;1.00;;;;;;5045871;28;20401;-58
2023/03/21 07:06:25;;;;;;;9.23;3.70;;;15.80;1.00;;;;;;5044789;28;20499;-58
2023/03/21 07:08:52;;;;;;;9.60;3.53;;;15.60;1.00;;;;;;5048873;28;20743;-58
2023/03/21 07:11:18;;;;;;;9.38;3.30;;;15.80;99.90;;;;;;5049273;28;20443;-58
2023/03/21 07:13:44;;;;;;;11.52;3.53;;;15.60;99.90;;;;;;5048802;28;20385;-62
2023/03/21 07:16:10;;;;;;;9.57;3.60;;;;;;;;;;5048895;28;20409;-58
2023/03/21 07:18:37;;;;;;;8.90;3.42;;;;;;;;;;5049286;28;20461;-59
2023/03/21 07:21:02;;;;;;;10.90;3.70;;;18.40;99.90;;;;;;5048314;28;20370;-59
2023/03/21 07:23:28;;;;;;;9.60;3.50;;;19.60;99.90;;;;;;5049192;28;20384;-58
2023/03/21 07:25:54;;;;;;;7.57;3.60;;;20.40;99.90;;;;;;5048357;28;20907;-60
2023/03/21 07:28:20;;;;;;;7.50;3.60;;;20.50;99.90;;;;;;5049119;28;20413;-59
2023/03/21 07:30:52;;;;;;;7.90;4.10;;;21.10;99.90;;;;;;5048274;28;20381;-61
2023/03/21 07:33:17;;;;;;;8.18;4.05;;;21.60;99.90;;;;;;5049326;28;20385;-59
2023/03/21 07:35:43;;;;;;;8.47;6.50;;;21.30;99.90;;;;;;5048335;28;20527;-63
2023/03/21 07:38:09;;;;;;;9.20;7.40;;;22.20;99.90;;;;;;5048768;28;20859;-60
2023/03/21 07:40:35;;;;;;;10.30;6.83;;;22.50;99.90;;;;;;5049003;28;21214;-59
2023/03/21 07:43:00;;;;;;;8.73;6.20;;;22.30;99.90;;;;;;5048467;28;20391;-59
2023/03/21 07:45:26;;;;;;;9.23;7.43;;;21.90;99.90;;;;;;5049025;28;20417;-59
2023/03/21 07:47:53;;;;;;;8.35;7.45;;;22.00;99.90;;;;;;5050100;28;20381;-59
2023/03/21 07:50:18;;;;;;;11.05;8.48;;;22.30;99.90;;;;;;5052852;28;20417;-59
2023/03/21 07:52:45;;;;;;;9.73;8.45;;;22.00;99.90;;;;;;5052110;28;20915;-63
2023/03/21 07:55:10;;;;;;;8.90;7.15;;;22.00;99.90;;;;;;5053073;28;20385;-59
2023/03/21 07:57:36;;;;;;;9.63;7.38;;;21.60;99.90;;;;;;5052423;28;20439;-59
2023/03/21 08:00:05;;;;;;;8.80;7.20;;;22.40;99.90;;;;;;5051888;28;20386;-59
2023/03/21 08:02:30;;;;;;;8.60;7.43;;;22.30;99.90;;;;;;5052844;28;20879;-59
2023/03/21 08:04:56;;;;;;;9.10;7.78;;;22.60;99.90;;;;;;5052001;28;20370;-59
2023/03/21 08:07:21;;;;;;;8.23;6.90;;;22.20;99.90;;;;;;5052326;28;20393;-59
2023/03/21 08:09:47;;;;;;;8.10;6.30;;;21.90;99.90;;;;;;5051835;28;20946;-60
2023/03/21 08:12:13;;;;;;;7.40;6.20;;;21.20;99.90;;;;;;5052318;28;20886;-59
2023/03/21 08:14:38;;;;;;;8.00;5.67;;;20.90;99.90;;;;;;5052503;28;20464;-59
2023/03/21 08:17:05;;;;;;;8.50;5.50;;;21.30;99.90;;;;;;5051695;28;20419;-59
2023/03/21 08:19:31;;;;;;;10.43;5.85;;;21.30;99.90;;;;;;5052393;28;20855;-60
2023/03/21 08:22:01;;;;;;;9.02;5.70;;;21.50;99.90;;;;;;5051311;28;20450;-59
2023/03/21 08:24:27;;;;;;;8.40;5.50;;;22.10;99.90;;;;;;5052211;28;20400;-59
2023/03/21 08:26:53;;;;;;;7.60;5.47;;;21.90;99.90;;;;;;5051202;28;20382;-59
2023/03/21 08:29:20;;;;;;;9.00;6.40;;;22.70;99.90;;;;;;5052303;28;20451;-59
2023/03/21 08:31:46;;;;;;;9.70;6.90;;;23.00;99.90;;;;;;5051734;28;20389;-63
2023/03/21 08:34:13;;;;;;;8.30;7.10;;;23.00;99.90;;;;;;5051628;28;20442;-59
2023/03/21 08:36:38;;;;;;;8.98;7.40;;;23.50;99.90;;;;;;5033553;28;20405;-59
2023/03/21 08:39:05;;;;;;;9.33;8.43;;;24.30;99.90;;;;;;5051707;28;20439;-59
2023/03/21 08:41:35;;;;;;;8.98;8.07;;;24.20;99.90;;;;;;5051638;28;20374;-59
2023/03/21 08:44:02;;;;;;;7.60;5.40;;;23.40;99.90;;;;;;5050938;28;20385;-59
2023/03/21 08:46:29;;;;;;;7.30;5.05;;;21.10;99.90;;;;;;5052145;28;20446;-59
2023/03/21 08:48:55;;;;;;;7.78;5.20;;;;;;;;;;5051030;28;20381;-59
2023/03/21 08:51:20;;;;;;;7.90;5.40;;;21.20;99.90;;;;;;5051883;28;20373;-59
2023/03/21 08:53:49;;;;;;;8.77;6.00;;;22.60;99.90;;;;;;5050972;28;20992;-64
2023/03/21 08:56:15;;;;;;;7.85;6.45;;;23.30;99.90;;;;;;5051653;28;20413;-59
2023/03/21 08:58:41;;;;;;;8.17;6.00;;;23.50;99.90;;;;;;5050931;28;20393;-59
2023/03/21 09:01:10;;;;;;;8.20;5.93;;;23.30;99.90;;;;;;5051045;28;20492;-59
2023/03/21 09:03:37;;;;;;;8.27;6.50;;;23.50;99.90;;;;;;5051600;28;20397;-59
2023/03/21 09:06:03;;;;;;;7.95;7.15;;;23.50;1.00;;;;;;5050931;28;20434;-59
2023/03/21 09:08:29;;;;;;;8.32;6.60;;;23.00;99.90;;;;;;5051015;28;20392;-61
2023/03/21 09:10:55;;;;;;;7.72;6.90;;;23.40;99.90;;;;;;5050864;28;20377;-60
2023/03/21 09:13:22;;;;;;;9.90;8.60;;;23.60;99.90;;;;;;5050961;28;20926;-60
2023/03/21 09:15:48;;;;;;;10.60;7.50;;;24.40;99.90;;;;;;5050427;28;20471;-65
2023/03/21 09:18:16;;;;;;;8.70;6.80;;;23.80;99.90;;;;;;5051305;28;20412;-60
2023/03/21 09:20:45;;;;;;;9.82;7.28;;;23.30;99.90;;;;;;5051127;28;20389;-60
2023/03/21 09:23:12;;;;;;;10.00;6.68;;;22.70;99.90;;;;;;5051105;28;20424;-60
2023/03/21 09:25:39;;;;;;;8.20;6.20;;;22.80;99.90;;;;;;5051418;28;20384;-60
2023/03/21 09:28:05;;;;;;;13.27;6.90;;;22.90;99.90;;;;;;5050001;28;20948;-59
2023/03/21 09:30:33;;;;;;;10.32;6.50;;;22.50;99.90;;;;;;5050882;28;20377;-60
2023/03/21 09:33:00;;;;;;;9.40;6.40;;;22.50;99.90;;;;;;5050282;28;20465;-60
2023/03/21 09:35:27;;;;;;;7.95;6.65;;;22.70;99.90;;;;;;5051060;28;20443;-59
2023/03/21 09:37:53;;;;;;;10.27;6.45;;;23.00;99.90;;;;;;5040589;28;20409;-60
2023/03/21 09:40:30;;;;;;;8.15;6.80;;;23.40;99.90;;;;;;5051043;28;20389;-59
2023/03/21 09:43:15;;;;;;;8.32;7.30;;;22.80;99.90;;;;;;5032345;28;20379;-60
2023/03/21 09:46:01;;;;;;;9.30;8.20;;;23.30;99.90;;;;;;5030919;28;20462;-59
2023/03/21 09:48:56;;;;;;;9.70;8.43;;;24.10;99.90;;;;;;5030530;28;20453;-60
2023/03/21 09:51:24;;;;;;;8.90;7.68;;;23.90;99.90;;;;;;5043653;28;20400;-59
2023/03/21 09:53:54;;;;;;;8.10;7.30;;;23.80;99.90;;;;;;5031501;28;20472;-60
2023/03/21 09:56:20;;;;;;;9.35;6.85;;;23.50;99.90;;;;;;5050429;28;20420;-60
2023/03/21 09:58:54;;;;;;;8.20;6.95;;;22.70;99.90;;;;;;5050059;28;20448;-64
2023/03/21 10:01:28;;;;;;;11.60;6.20;;;21.80;99.90;;;;;;5050476;28;20390;-59
2023/03/21 10:04:00;;;;;;;8.13;6.20;;;20.90;99.90;;;;;;5049579;28;20420;-59
2023/03/21 10:06:29;;;;;;;8.05;6.10;;;21.10;99.90;;;;;;5032153;28;20398;-59
2023/03/21 10:09:05;;;;;;;8.73;6.38;;;21.10;99.90;;;;;;5029537;28;20974;-59
2023/03/21 10:11:42;;;;;;;9.98;6.70;;;21.60;99.90;;;;;;5012642;28;20796;-59
2023/03/21 10:14:13;;;;;;;7.65;5.82;;;22.50;99.90;;;;;;5039554;28;20524;-59
2023/03/21 10:16:50;;;;;;;8.60;6.10;;;22.70;99.90;;;;;;5050079;28;20401;-59
2023/03/21 10:19:18;;;;;;;8.63;6.20;;;23.40;99.90;;;;;;5049836;28;20415;-59
2023/03/21 10:21:49;;;;;;;8.75;6.45;;;23.80;99.90;;;;;;5032548;28;20400;-60
2023/03/21 10:24:24;;;;;;;8.57;6.93;;;24.60;99.90;;;;;;5049974;28;20421;-59
2023/03/21 10:26:51;;;;;;;7.77;6.03;;;24.50;99.90;;;;;;5049149;28;20386;-60
2023/03/21 10:29:21;;;;;;;7.30;5.82;;;23.90;99.90;;;;;;5049979;28;20405;-59
2023/03/21 10:31:47;;;;;;;8.18;5.60;;;23.30;99.90;;;;;;5049434;28;20374;-64
2023/03/21 10:34:17;;;;;;;7.90;5.50;;;21.90;99.90;;;;;;5049716;28;20859;-59
2023/03/21 10:36:43;;;;;;;8.07;5.33;;;21.70;99.90;;;;;;5049710;28;20436;-59
2023/03/21 10:39:23;;;;;;;9.32;6.00;;;21.50;99.90;;;;;;5048597;28;20862;-59
2023/03/21 10:41:50;;;;;;;8.40;5.97;;;21.30;99.90;;;;;;5049026;28;20377;-60
2023/03/21 10:44:19;;;;;;;7.65;5.80;;;21.90;99.90;;;;;;5049762;28;20429;-58
2023/03/21 10:46:54;;;;;;;9.50;6.47;;;22.00;99.90;;;;;;5049485;28;20377;-63
2023/03/21 10:49:20;;;;;;;9.05;6.20;;;22.10;99.90;;;;;;5049425;28;20484;-59
2023/03/21 10:51:50;;;;;;;9.27;6.18;;;21.60;99.90;;;;;;5049458;28;20394;-62
2023/03/21 10:54:20;;;;;;;9.38;4.38;;;20.20;99.90;;;;;;5049513;28;20386;-58
2023/03/21 10:57:13;;;;;;;8.70;5.00;;;20.40;99.90;;;;;;5049250;28;20428;-63
2023/03/21 10:59:44;;;;;;;7.30;4.85;;;20.90;99.90;;;;;;5049397;28;20431;-58
2023/03/21 11:02:23;;;;;;;7.55;4.95;;;21.10;99.90;;;;;;5048640;28;21006;-59
2023/03/21 11:04:49;;;;;;;7.40;4.80;;;21.20;99.90;;;;;;5048444;28;20400;-62
2023/03/21 11:07:18;;;;;;;9.10;5.28;;;21.20;99.90;;;;;;5049568;28;20862;-58
2023/03/21 11:09:56;;;;;;;8.15;4.97;;;21.40;99.90;;;;;;5048781;28;20839;-59
2023/03/21 11:12:32;;;;;;;8.77;4.95;;;21.40;99.90;;;;;;5049549;28;20453;-58
2023/03/21 11:15:23;;;;;;;7.32;4.70;;;21.10;99.90;;;;;;5048096;28;21209;-58
2023/03/21 11:17:49;;;;;;;9.70;5.10;;;20.80;99.90;;;;;;5048280;28;20833;-63
2023/03/21 11:20:18;;;;;;;8.30;4.40;;;20.50;99.90;;;;;;5049605;28;20479;-59
2023/03/21 11:22:45;;;;;;;8.07;4.88;;;20.10;99.90;;;;;;5050659;28;20381;-59
2023/03/21 11:25:36;;;;;;;7.25;4.32;;;20.00;99.90;;;;;;5052477;28;20385;-58
2023/03/21 11:28:14;;;;;;;7.15;4.40;;;20.40;99.90;;;;;;5052367;28;20495;-58
2023/03/21 11:31:00;;;;;;;7.53;4.03;;;20.40;99.90;;;;;;5053591;28;20389;-58
2023/03/21 11:33:39;;;;;;;7.55;4.47;;;20.10;99.90;;;;;;5053042;28;20453;-58
2023/03/21 11:36:17;;;;;;;6.40;3.78;;;19.90;99.90;;;;;;5052458;28;20508;-59
2023/03/21 11:38:49;;;;;;;7.80;4.25;;;19.70;99.90;;;;;;5053088;28;20404;-58
2023/03/21 11:41:46;;;;;;;7.50;4.47;;;20.00;99.90;;;;;;5052815;28;20384;-58
2023/03/21 11:44:28;;;;;;;8.30;4.13;;;19.40;99.90;;;;;;5050105;28;20401;-58
2023/03/21 11:46:54;;;;;;;8.68;4.78;;;19.40;99.90;;;;;;5052356;28;20866;-58
2023/03/21 11:49:21;;;;;;;7.03;4.40;;;19.40;99.90;;;;;;5053434;28;20811;-58
2023/03/21 11:52:07;;;;;;;6.60;4.10;;;20.00;99.90;;;;;;5034676;28;20389;-58
2023/03/21 11:54:33;;;;;;;7.43;4.30;;;18.80;99.90;;;;;;5053116;28;20570;-58
2023/03/21 11:57:13;;;;;;;7.60;3.90;;;18.70;99.90;;;;;;5051408;28;20908;-58
2023/03/21 11:59:55;;;;;;;9.00;4.00;;;18.70;99.90;;;;;;5052627;28;20425;-58
2023/03/21 12:02:53;;;;;;;8.35;3.85;;;18.70;99.90;;;;;;5052683;28;20385;-60
2023/03/21 12:05:26;;;;;;;7.15;3.70;;;18.70;99.90;;;;;;5052673;28;20393;-60
2023/03/21 12:08:05;;;;;;;6.80;3.75;;;18.80;99.90;;;;;;5052037;28;20381;-60
2023/03/21 12:10:44;;;;;;;8.20;3.60;;;18.70;99.90;;;;;;5052561;28;20382;-60
2023/03/21 12:13:16;;;;;;;7.13;3.30;;;18.70;99.90;;;;;;5051722;28;21244;-62
2023/03/21 12:16:15;;;;;;;7.22;3.58;;;18.70;99.90;;;;;;5056105;28;20383;-60
2023/03/21 12:18:44;;;;;;;6.22;3.10;;;18.70;99.90;;;;;;5054493;28;20409;-61
2023/03/21 12:21:41;;;;;;;7.60;3.85;;;18.90;99.90;;;;;;5062357;28;20442;-60
2023/03/21 12:24:23;;;;;;;6.90;3.35;;;18.80;99.90;;;;;;5042611;28;20402;-60
2023/03/21 12:26:52;;;;;;;6.90;3.90;;;18.90;99.90;;;;;;5071548;28;20392;-64
2023/03/21 12:29:46;;;;;;;8.90;3.80;;;20.00;99.90;;;;;;5060286;28;20417;-61
2023/03/21 12:32:35;;;;;;;7.55;3.90;;;18.10;99.90;;;;;;5040960;28;20762;-63
2023/03/21 12:35:27;;;;;;;9.27;3.90;;;18.20;99.90;;;;;;5044640;28;20403;-60
2023/03/21 12:38:15;;;;;;;8.30;3.60;;;18.40;99.90;;;;;;5060957;28;20412;-60
2023/03/21 12:40:52;;;;;;;8.55;3.50;;;18.60;99.90;;;;;;5058961;28;20388;-60
2023/03/21 12:43:40;;;;;;;10.15;4.32;;;18.90;99.90;;;;;;5051874;28;20386;-60
2023/03/21 12:46:20;;;;;;;6.60;3.63;;;19.00;99.90;;;;;;5050869;28;20377;-62
2023/03/21 12:48:54;;;;;;;7.80;3.97;;;19.10;99.90;;;;;;5051943;28;20385;-60
2023/03/21 12:51:28;;;;;;;6.85;3.58;;;19.30;99.90;;;;;;5053892;28;20393;-60
2023/03/21 12:54:08;;;;;;;8.40;3.45;;;19.00;99.90;;;;;;5050763;28;20446;-61
2023/03/21 12:56:45;;;;;;;7.45;3.80;;;19.00;99.90;;;;;;5055506;28;20423;-61
2023/03/21 12:59:31;;;;;;;7.22;3.50;;;20.00;99.90;;;;;;5047646;28;20415;-60
2023/03/21 13:02:22;;;;;;;6.70;3.60;;;19.30;99.90;;;;;;5038819;28;20392;-60
2023/03/21 13:05:17;;;;;;;6.80;3.70;;;19.50;99.90;;;;;;5051325;28;20492;-64
2023/03/21 13:07:49;;;;;;;7.57;4.13;;;19.30;99.90;;;;;;5047504;28;20851;-60